createdAt,value
2018-11-21T00:01:47.651Z,42.87
2018-11-21T00:04:16.145Z,41.43
2018-11-21T00:06:44.353Z,36.23
2018-11-21T00:09:12.906Z,43.47
2018-11-21T00:11:41.145Z,39.70
2018-11-21T00:14:09.428Z,38.03
2018-11-21T00:16:37.975Z,38.50
2018-11-21T00:19:06.400Z,42.07
2018-11-21T00:21:34.671Z,42.53
2018-11-21T00:24:02.896Z,39.10
2018-11-21T00:26:31.149Z,38.77
2018-11-21T00:28:59.333Z,39.50
2018-11-21T00:31:27.836Z,39.93
2018-11-21T00:33:56.064Z,39.50
2018-11-21T00:36:24.281Z,40.87
2018-11-21T00:38:52.484Z,38.53
2018-11-21T00:41:20.767Z,40.93
2018-11-21T00:43:48.989Z,40.90
2018-11-21T00:46:17.191Z,43.80
2018-11-21T00:48:45.427Z,40.80
2018-11-21T00:51:14.756Z,40.23
2018-11-21T00:53:42.987Z,41.47
2018-11-21T00:56:11.367Z,38.70
2018-11-21T00:58:39.863Z,41.50
2018-11-21T01:01:08.107Z,41.37
2018-11-21T01:03:36.378Z,40.70
2018-11-21T01:06:04.600Z,41.50
2018-11-21T01:08:32.871Z,40.43
2018-11-21T01:11:01.069Z,42.07
2018-11-21T01:13:29.610Z,40.17
2018-11-21T01:15:57.903Z,38.13
2018-11-21T01:18:26.200Z,42.30
2018-11-21T01:20:54.477Z,42.83
2018-11-21T01:23:22.771Z,44.83
2018-11-21T01:25:50.963Z,43.80
2018-11-21T01:28:19.579Z,41.40
2018-11-21T01:30:47.780Z,40.17
2018-11-21T01:33:16.049Z,44.13
2018-11-21T01:35:44.314Z,39.10
2018-11-21T01:38:12.537Z,45.47
2018-11-21T01:40:40.853Z,38.57
2018-11-21T01:43:09.142Z,41.03
2018-11-21T01:45:40.125Z,40.53
2018-11-21T01:48:08.360Z,42.03
2018-11-21T01:50:36.579Z,41.63
2018-11-21T01:53:04.827Z,38.57
2018-11-21T01:55:35.836Z,41.63
2018-11-21T01:58:04.044Z,43.77
2018-11-21T02:00:32.578Z,39.17
2018-11-21T02:03:00.816Z,37.53
2018-11-21T02:05:29.312Z,39.97
2018-11-21T02:07:57.532Z,40.33
2018-11-21T02:10:25.792Z,39.50
2018-11-21T02:12:54.034Z,43.97
2018-11-21T02:15:22.278Z,35.17
2018-11-21T02:17:50.506Z,40.90
2018-11-21T02:20:18.832Z,38.20
2018-11-21T02:22:47.094Z,37.93
2018-11-21T02:25:15.417Z,37.10
2018-11-21T02:27:43.628Z,39.73
2018-11-21T02:30:12.188Z,39.70
2018-11-21T02:32:40.816Z,39.40
2018-11-21T02:35:09.295Z,46.03
2018-11-21T02:37:37.502Z,42.17
2018-11-21T02:40:06.517Z,41.87
2018-11-21T02:42:35.128Z,37.50
2018-11-21T02:45:03.465Z,43.43
2018-11-21T02:47:31.727Z,40.80
2018-11-21T02:50:00.082Z,39.23
2018-11-21T02:52:28.289Z,45.13
2018-11-21T02:54:56.590Z,41.83
2018-11-21T02:57:28.975Z,42.87
2018-11-21T03:00:08.071Z,41.50
2018-11-21T03:02:36.346Z,40.60
2018-11-21T03:05:04.693Z,42.07
2018-11-21T03:07:32.974Z,42.63
2018-11-21T03:10:01.197Z,42.23
2018-11-21T03:12:31.339Z,46.97
2018-11-21T03:14:59.571Z,46.10
2018-11-21T03:17:27.848Z,41.63
2018-11-21T03:19:56.072Z,41.33
2018-11-21T03:22:24.276Z,42.60
2018-11-21T03:24:52.498Z,42.13
2018-11-21T03:27:20.729Z,40.63
2018-11-21T03:29:48.940Z,40.97
2018-11-21T03:32:17.290Z,41.60
2018-11-21T03:34:45.496Z,46.70
2018-11-21T03:37:13.730Z,39.37
2018-11-21T03:39:42.269Z,45.30
2018-11-21T03:42:10.523Z,38.27
2018-11-21T03:44:39.135Z,39.27
2018-11-21T03:47:07.368Z,42.93
2018-11-21T03:49:35.947Z,40.53
2018-11-21T03:52:04.252Z,41.77
2018-11-21T03:54:32.410Z,39.53
2018-11-21T03:57:01.459Z,37.67
2018-11-21T03:59:29.670Z,46.60
2018-11-21T04:01:57.911Z,39.63
2018-11-21T04:04:26.109Z,38.43
2018-11-21T04:06:54.408Z,40.40
2018-11-21T04:09:22.657Z,40.30
2018-11-21T04:11:50.882Z,42.73
2018-11-21T04:14:19.135Z,39.87
2018-11-21T04:16:47.434Z,40.90
2018-11-21T04:19:15.622Z,44.77
2018-11-21T04:21:43.881Z,39.13
2018-11-21T04:24:12.082Z,42.27
2018-11-21T04:26:40.325Z,42.33
2018-11-21T04:29:08.649Z,41.53
2018-11-21T04:31:36.871Z,41.23
2018-11-21T04:34:05.339Z,40.70
2018-11-21T04:36:33.544Z,43.17
2018-11-21T04:39:01.773Z,41.17
2018-11-21T04:41:29.994Z,41.20
2018-11-21T04:43:58.231Z,42.33
2018-11-21T04:46:26.470Z,45.67
2018-11-21T04:48:55.072Z,41.53
2018-11-21T04:51:23.331Z,41.83
2018-11-21T04:53:51.554Z,39.43
2018-11-21T04:56:20.090Z,38.17
2018-11-21T04:58:48.712Z,45.20
2018-11-21T05:01:17.034Z,40.67
2018-11-21T05:03:45.243Z,39.07
2018-11-21T05:06:13.498Z,38.93
2018-11-21T05:08:41.779Z,39.93
2018-11-21T05:11:10.001Z,43.43
2018-11-21T05:13:38.301Z,38.57
2018-11-21T05:16:06.991Z,41.20
2018-11-21T05:18:35.274Z,42.47
2018-11-21T05:21:03.778Z,49.37
2018-11-21T05:23:32.367Z,42.97
2018-11-21T05:26:00.683Z,42.33
2018-11-21T05:28:28.899Z,40.33
2018-11-21T05:30:57.222Z,43.43
2018-11-21T05:33:26.839Z,39.37
2018-11-21T05:35:55.091Z,42.57
2018-11-21T05:38:23.287Z,44.90
2018-11-21T05:40:52.266Z,43.57
2018-11-21T05:43:20.899Z,42.70
2018-11-21T05:45:49.771Z,48.67
2018-11-21T05:48:18.802Z,45.83
2018-11-21T05:50:47.063Z,44.07
2018-11-21T05:53:15.271Z,42.77
2018-11-21T05:55:43.503Z,45.10
2018-11-21T05:58:12.066Z,46.00
2018-11-21T06:00:40.306Z,43.03
2018-11-21T06:03:08.971Z,47.27
2018-11-21T06:05:37.271Z,42.03
2018-11-21T06:08:05.709Z,48.40
2018-11-21T06:10:33.904Z,47.43
2018-11-21T06:13:02.179Z,40.93
2018-11-21T06:15:30.396Z,43.70
2018-11-21T06:17:58.656Z,42.83
2018-11-21T06:20:26.873Z,42.73
2018-11-21T06:22:55.471Z,41.90
2018-11-21T06:25:23.685Z,49.67
2018-11-21T06:27:52.243Z,43.50
2018-11-21T06:30:20.786Z,46.77
2018-11-21T06:32:48.994Z,43.87
2018-11-21T06:35:17.229Z,45.27
2018-11-21T06:37:45.483Z,44.00
2018-11-21T06:40:15.030Z,46.47
2018-11-21T06:42:52.818Z,44.93
2018-11-21T06:45:22.070Z,44.67
2018-11-21T06:47:50.457Z,46.03
2018-11-21T06:50:19.074Z,43.23
2018-11-21T06:52:47.553Z,42.27
2018-11-21T06:55:16.553Z,49.23
2018-11-21T06:57:44.825Z,47.10
2018-11-21T07:00:13.169Z,48.20
2018-11-21T07:02:41.729Z,47.47
2018-11-21T07:05:10.837Z,47.60
2018-11-21T07:07:39.081Z,48.03
2018-11-21T07:10:10.240Z,46.37
2018-11-21T07:12:38.511Z,43.90
2018-11-21T07:15:07.354Z,46.30
2018-11-21T07:17:35.884Z,44.93
2018-11-21T07:20:04.762Z,46.57
2018-11-21T07:22:33.034Z,46.37
2018-11-21T07:25:01.327Z,42.37
2018-11-21T07:27:29.517Z,43.40
2018-11-21T07:29:57.806Z,44.57
2018-11-21T07:32:29.736Z,43.30
2018-11-21T07:34:58.000Z,46.00
2018-11-21T07:37:26.473Z,43.33
2018-11-21T07:39:54.753Z,47.07
2018-11-21T07:42:23.020Z,41.27
2018-11-21T07:44:52.068Z,41.03
2018-11-21T07:47:26.482Z,42.07
2018-11-21T07:49:48.583Z,43.17
2018-11-21T07:52:16.890Z,46.07
2018-11-21T07:54:45.464Z,44.83
2018-11-21T07:57:49.200Z,42.33
2018-11-21T08:01:04.179Z,43.40
2018-11-21T08:03:34.741Z,46.07
2018-11-21T08:06:06.100Z,44.00
2018-11-21T08:08:52.667Z,43.03
2018-11-21T08:11:43.509Z,43.73
2018-11-21T08:14:29.611Z,43.80
2018-11-21T08:17:14.931Z,44.17
2018-11-21T08:20:00.035Z,43.23
2018-11-21T08:23:05.432Z,46.20
2018-11-21T08:25:43.866Z,42.63
2018-11-21T08:28:43.110Z,48.60
2018-11-21T08:31:11.370Z,42.10
2018-11-21T08:33:39.649Z,44.93
2018-11-21T08:36:07.932Z,42.53
2018-11-21T08:38:36.195Z,44.83
2018-11-21T08:41:04.542Z,45.87
2018-11-21T08:43:33.057Z,40.27
2018-11-21T08:46:01.332Z,41.43
2018-11-21T08:48:29.579Z,39.93
2018-11-21T08:50:57.796Z,45.87
2018-11-21T08:53:26.658Z,41.47
2018-11-21T08:55:54.891Z,40.63
2018-11-21T08:58:23.106Z,46.20
2018-11-21T09:00:51.479Z,40.63
2018-11-21T09:03:20.175Z,42.30
2018-11-21T09:05:48.408Z,43.60
2018-11-21T09:08:16.720Z,44.80
2018-11-21T09:10:44.917Z,41.90
2018-11-21T09:13:13.122Z,45.67
2018-11-21T09:15:41.684Z,41.33
2018-11-21T09:18:09.911Z,44.67
2018-11-21T09:20:38.123Z,43.57
2018-11-21T09:23:06.358Z,50.67
2018-11-21T09:25:34.662Z,45.23
2018-11-21T09:28:02.884Z,42.30
2018-11-21T09:30:31.098Z,48.67
2018-11-21T09:32:59.849Z,45.13
2018-11-21T09:35:29.017Z,41.83
2018-11-21T09:37:57.274Z,42.83
2018-11-21T09:40:25.499Z,44.77
2018-11-21T09:42:55.185Z,43.43
2018-11-21T09:45:24.123Z,44.90
2018-11-21T09:47:52.635Z,44.80
2018-11-21T09:50:28.145Z,44.07
2018-11-21T09:52:56.432Z,44.27
2018-11-21T09:55:24.965Z,43.03
2018-11-21T09:57:54.063Z,43.13
2018-11-21T10:00:58.661Z,46.63
2018-11-21T10:03:31.764Z,45.20
2018-11-21T10:06:14.748Z,41.57
2018-11-21T10:08:47.216Z,42.53
2018-11-21T10:11:15.873Z,43.03
2018-11-21T10:13:44.071Z,43.57
2018-11-21T10:16:12.350Z,44.60
2018-11-21T10:18:42.224Z,43.93
2018-11-21T10:21:12.276Z,41.47
2018-11-21T10:23:40.503Z,46.90
2018-11-21T10:26:09.034Z,41.50
2018-11-21T10:28:37.688Z,42.87
2018-11-21T10:31:05.917Z,46.23
2018-11-21T10:33:34.214Z,41.03
2018-11-21T10:36:02.714Z,42.23
2018-11-21T10:38:30.977Z,43.37
2018-11-21T10:40:59.198Z,44.27
2018-11-21T10:43:28.442Z,43.60
2018-11-21T10:45:55.654Z,44.90
2018-11-21T10:48:23.888Z,43.93
2018-11-21T10:50:52.091Z,42.30
2018-11-21T10:53:20.305Z,42.83
2018-11-21T10:55:48.571Z,43.70
2018-11-21T10:58:16.779Z,43.00
2018-11-21T11:01:02.621Z,45.03
2018-11-21T11:03:33.342Z,44.53
2018-11-21T11:06:19.491Z,48.63
2018-11-21T11:09:18.874Z,43.30
2018-11-21T11:12:04.969Z,41.87
2018-11-21T11:15:54.684Z,42.73
2018-11-21T11:18:51.947Z,43.27
2018-11-21T11:21:39.195Z,43.40
2018-11-21T11:24:26.064Z,44.20
2018-11-21T11:27:07.719Z,42.60
2018-11-21T11:29:56.093Z,43.33
2018-11-21T11:32:44.351Z,47.97
2018-11-21T11:35:22.608Z,43.27
2018-11-21T11:38:19.733Z,45.33
2018-11-21T11:41:26.528Z,52.63
2018-11-21T11:44:14.865Z,46.27
2018-11-21T11:47:11.851Z,42.50
2018-11-21T11:50:08.530Z,43.00
2018-11-21T11:52:56.798Z,48.03
2018-11-21T11:55:43.954Z,45.97
2018-11-21T11:58:38.409Z,46.03
2018-11-21T12:01:22.470Z,45.97
2018-11-21T12:04:05.683Z,45.20
2018-11-21T12:06:53.094Z,45.83
2018-11-21T12:09:40.327Z,46.23
2018-11-21T12:12:27.259Z,44.77
2018-11-21T12:15:07.030Z,45.50
2018-11-21T12:18:06.306Z,46.83
2018-11-21T12:20:52.946Z,45.10
2018-11-21T12:23:46.943Z,47.40
2018-11-21T12:26:33.945Z,43.97
2018-11-21T12:29:23.499Z,45.67
2018-11-21T12:32:14.803Z,43.67
2018-11-21T12:35:12.092Z,45.20
2018-11-21T12:38:02.962Z,47.47
2018-11-21T12:40:40.742Z,44.43
2018-11-21T12:43:27.461Z,42.03
2018-11-21T12:46:27.545Z,43.50
2018-11-21T12:49:14.458Z,43.10
2018-11-21T12:52:11.690Z,44.20
2018-11-21T12:54:58.257Z,41.53
2018-11-21T12:58:01.416Z,45.80
2018-11-21T13:00:48.863Z,41.03
2018-11-21T13:03:37.834Z,40.47
2018-11-21T13:06:23.947Z,44.13
2018-11-21T13:09:11.371Z,42.23
2018-11-21T13:11:52.616Z,40.70
2018-11-21T13:14:40.240Z,44.03
2018-11-21T13:17:17.572Z,43.00
2018-11-21T13:20:05.843Z,40.37
2018-11-21T13:22:50.347Z,42.13
2018-11-21T13:25:41.270Z,42.63
2018-11-21T13:28:26.398Z,41.57
2018-11-21T13:31:22.506Z,40.47
2018-11-21T13:34:16.881Z,41.67
2018-11-21T13:36:57.764Z,40.87
2018-11-21T13:39:44.745Z,41.73
2018-11-21T13:42:33.202Z,39.10
2018-11-21T13:45:24.351Z,39.77
2018-11-21T13:48:12.607Z,41.93
2018-11-21T13:50:57.439Z,45.70
2018-11-21T13:53:44.574Z,38.20
2018-11-21T13:56:14.027Z,39.03
2018-11-21T13:58:43.494Z,38.27
2018-11-21T14:01:13.052Z,37.33
2018-11-21T14:03:42.558Z,40.33
2018-11-21T14:06:12.213Z,33.90
2018-11-21T14:08:41.646Z,35.57
2018-11-21T14:11:11.099Z,33.93
2018-11-21T14:13:40.856Z,36.93
2018-11-21T14:16:10.412Z,36.30
2018-11-21T14:18:39.850Z,36.60
2018-11-21T14:21:09.896Z,35.93
2018-11-21T14:23:39.514Z,34.73
2018-11-21T14:26:09.075Z,39.60
2018-11-21T14:28:38.508Z,36.60
2018-11-21T14:31:08.040Z,37.93
2018-11-21T14:33:37.535Z,33.83
2018-11-21T14:36:07.923Z,33.13
2018-11-21T14:38:37.371Z,35.00
2018-11-21T14:41:06.998Z,38.30
2018-11-21T14:43:36.547Z,37.17
2018-11-21T14:46:06.767Z,37.97
2018-11-21T14:48:36.250Z,35.47
2018-11-21T14:51:06.412Z,34.33
2018-11-21T14:53:35.834Z,32.50
2018-11-21T14:56:05.758Z,35.33
2018-11-21T14:58:35.189Z,33.27
2018-11-21T15:01:04.902Z,34.40
2018-11-21T15:03:34.328Z,34.13
2018-11-21T15:06:03.966Z,33.13
2018-11-21T15:08:33.459Z,34.13
2018-11-21T15:11:03.199Z,33.73
2018-11-21T15:13:32.998Z,35.83
2018-11-21T15:16:02.580Z,34.53
2018-11-21T15:18:32.120Z,33.93
2018-11-21T15:21:01.598Z,33.07
2018-11-21T15:23:31.026Z,33.53
2018-11-21T15:26:00.623Z,29.80
2018-11-21T15:28:30.313Z,34.30
2018-11-21T15:30:59.843Z,32.43
2018-11-21T15:33:29.400Z,32.67
2018-11-21T15:35:58.818Z,29.17
2018-11-21T15:38:28.382Z,30.50
2018-11-21T15:40:57.841Z,31.03
2018-11-21T15:43:27.428Z,31.97
2018-11-21T15:45:57.067Z,30.27
2018-11-21T15:48:26.678Z,32.30
2018-11-21T15:50:56.297Z,34.80
2018-11-21T15:53:25.891Z,34.33
2018-11-21T15:55:55.723Z,37.53
2018-11-21T15:58:25.419Z,34.77
2018-11-21T16:00:54.875Z,36.63
2018-11-21T16:03:24.324Z,31.73
2018-11-21T16:05:53.869Z,32.57
2018-11-21T16:08:23.307Z,34.40
2018-11-21T16:10:52.834Z,34.53
2018-11-21T16:13:22.286Z,34.40
2018-11-21T16:15:53.583Z,33.93
2018-11-21T16:18:25.194Z,34.80
2018-11-21T16:20:55.059Z,33.27
2018-11-21T16:23:24.654Z,38.17
2018-11-21T16:25:54.215Z,34.53
2018-11-21T16:28:23.823Z,37.23
2018-11-21T16:30:53.299Z,37.07
2018-11-21T16:33:22.827Z,41.57
2018-11-21T16:35:52.360Z,36.47
2018-11-21T16:38:22.155Z,37.77
2018-11-21T16:40:51.588Z,36.33
2018-11-21T16:43:21.065Z,36.50
2018-11-21T16:45:52.058Z,37.77
2018-11-21T16:48:21.512Z,38.43
2018-11-21T16:50:51.117Z,37.73
2018-11-21T16:53:20.747Z,38.03
2018-11-21T16:55:50.211Z,36.57
2018-11-21T16:58:19.765Z,38.60
2018-11-21T17:00:49.373Z,36.97
2018-11-21T17:03:18.915Z,39.53
2018-11-21T17:05:48.451Z,37.33
2018-11-21T17:08:18.363Z,41.33
2018-11-21T17:10:48.115Z,39.77
2018-11-21T17:13:17.624Z,42.33
2018-11-21T17:15:47.862Z,40.07
2018-11-21T17:18:17.340Z,44.97
2018-11-21T17:20:47.166Z,42.00
2018-11-21T17:23:16.710Z,40.73
2018-11-21T17:25:46.278Z,44.53
2018-11-21T17:28:15.837Z,42.87
2018-11-21T17:30:45.345Z,40.83
2018-11-21T17:33:14.798Z,43.37
2018-11-21T17:35:44.277Z,45.33
2018-11-21T17:38:13.782Z,40.63
2018-11-21T17:40:44.235Z,42.40
2018-11-21T17:43:13.701Z,46.70
2018-11-21T17:45:43.152Z,43.57
2018-11-21T17:48:12.822Z,41.03
2018-11-21T17:50:42.415Z,46.07
2018-11-21T17:53:11.868Z,47.37
2018-11-21T17:55:41.500Z,44.90
2018-11-21T17:58:10.937Z,45.07
2018-11-21T18:00:40.372Z,48.13
2018-11-21T18:03:10.194Z,43.33
2018-11-21T18:05:41.005Z,46.63
2018-11-21T18:08:10.456Z,49.07
2018-11-21T18:10:41.265Z,46.43
2018-11-21T18:13:10.723Z,45.30
2018-11-21T18:15:40.199Z,47.53
2018-11-21T18:18:09.739Z,44.87
2018-11-21T18:20:39.246Z,43.63
2018-11-21T18:23:08.731Z,46.20
2018-11-21T18:25:43.451Z,42.57
2018-11-21T18:28:12.993Z,42.37
2018-11-21T18:30:42.824Z,43.13
2018-11-21T18:33:12.383Z,43.40
2018-11-21T18:35:42.603Z,51.53
2018-11-21T18:38:12.058Z,39.97
2018-11-21T18:40:41.608Z,41.83
2018-11-21T18:43:11.197Z,42.90
2018-11-21T18:45:42.266Z,41.40
2018-11-21T18:48:11.991Z,42.37
2018-11-21T18:50:41.597Z,44.77
2018-11-21T18:53:11.827Z,43.90
2018-11-21T18:55:47.029Z,43.77
2018-11-21T18:58:31.499Z,42.70
2018-11-21T19:01:00.938Z,45.70
2018-11-21T19:03:30.385Z,43.27
2018-11-21T19:05:59.910Z,46.20
2018-11-21T19:08:29.382Z,47.53
2018-11-21T19:10:58.850Z,45.37
2018-11-21T19:13:28.935Z,49.40
2018-11-21T19:15:58.380Z,49.67
2018-11-21T19:18:27.942Z,48.37
2018-11-21T19:20:57.395Z,49.43
2018-11-21T19:23:26.921Z,47.77
2018-11-21T19:25:56.350Z,49.60
2018-11-21T19:28:26.521Z,49.73
2018-11-21T19:30:55.984Z,52.33
2018-11-21T19:33:25.771Z,53.50
2018-11-21T19:35:55.308Z,54.10
2018-11-21T19:38:24.739Z,55.17
2018-11-21T19:40:54.615Z,50.73
2018-11-21T19:43:24.179Z,47.80
2018-11-21T19:45:53.658Z,50.70
2018-11-21T19:48:23.486Z,53.20
2018-11-21T19:50:52.942Z,52.70
2018-11-21T19:53:22.486Z,53.10
2018-11-21T19:55:51.964Z,51.97
2018-11-21T19:58:21.592Z,52.53
2018-11-21T20:00:51.412Z,51.93
2018-11-21T20:03:20.882Z,51.20
2018-11-21T20:05:50.756Z,54.70
2018-11-21T20:08:20.174Z,53.13
2018-11-21T20:10:50.088Z,48.60
2018-11-21T20:13:19.769Z,49.90
2018-11-21T20:15:49.395Z,50.33
2018-11-21T20:18:19.738Z,48.23
2018-11-21T20:20:49.278Z,52.20
2018-11-21T20:23:19.507Z,47.27
2018-11-21T20:25:48.958Z,50.00
2018-11-21T20:28:18.410Z,49.77
2018-11-21T20:30:47.904Z,51.13
2018-11-21T20:33:17.524Z,49.80
2018-11-21T20:35:47.045Z,50.03
2018-11-21T20:38:16.488Z,44.13
2018-11-21T20:40:45.946Z,48.33
2018-11-21T20:43:15.456Z,47.63
2018-11-21T20:45:45.022Z,44.13
2018-11-21T20:48:14.494Z,49.10
2018-11-21T20:50:44.245Z,50.97
2018-11-21T20:53:14.242Z,48.80
2018-11-21T20:55:46.154Z,46.43
2018-11-21T20:58:15.616Z,45.97
2018-11-21T21:00:45.071Z,47.57
2018-11-21T21:03:14.613Z,44.47
2018-11-21T21:05:44.080Z,48.47
2018-11-21T21:08:13.511Z,46.17
2018-11-21T21:10:47.164Z,48.77
2018-11-21T21:13:16.706Z,44.37
2018-11-21T21:15:46.166Z,48.17
2018-11-21T21:18:15.601Z,47.23
2018-11-21T21:20:45.137Z,43.30
2018-11-21T21:23:14.625Z,45.50
2018-11-21T21:25:44.150Z,44.23
2018-11-21T21:28:13.915Z,45.67
2018-11-21T21:30:43.417Z,45.73
2018-11-21T21:33:12.842Z,46.07
2018-11-21T21:35:42.281Z,45.03
2018-11-21T21:38:11.754Z,47.47
2018-11-21T21:40:41.506Z,42.67
2018-11-21T21:43:10.939Z,43.37
2018-11-21T21:45:40.802Z,46.70
2018-11-21T21:48:10.329Z,44.87
2018-11-21T21:50:39.806Z,44.93
2018-11-21T21:53:09.243Z,46.70
2018-11-21T21:55:38.703Z,50.60
2018-11-21T21:58:08.109Z,46.07
2018-11-21T22:00:37.557Z,46.47
2018-11-21T22:03:07.009Z,47.03
2018-11-21T22:05:36.442Z,45.80
2018-11-21T22:08:06.218Z,47.70
2018-11-21T22:10:35.757Z,43.53
2018-11-21T22:13:05.639Z,42.87
2018-11-21T22:15:36.485Z,46.10
2018-11-21T22:18:07.965Z,42.80
2018-11-21T22:20:37.530Z,48.20
2018-11-21T22:23:07.092Z,42.53
2018-11-21T22:25:36.658Z,45.77
2018-11-21T22:28:06.678Z,45.13
2018-11-21T22:30:36.105Z,43.53
2018-11-21T22:33:05.768Z,47.80
2018-11-21T22:35:37.008Z,44.80
2018-11-21T22:38:06.688Z,48.63
2018-11-21T22:40:36.123Z,44.70
2018-11-21T22:43:05.821Z,47.23
2018-11-21T22:45:35.349Z,45.50
2018-11-21T22:48:04.910Z,46.57
2018-11-21T22:50:34.374Z,45.77
2018-11-21T22:53:03.855Z,48.57
2018-11-21T22:55:33.622Z,48.77
2018-11-21T22:58:03.085Z,47.43
2018-11-21T23:00:43.622Z,47.50
2018-11-21T23:03:14.118Z,47.63
2018-11-21T23:05:43.683Z,46.53
2018-11-21T23:08:13.085Z,44.07
2018-11-21T23:10:42.614Z,50.47
2018-11-21T23:13:12.180Z,49.43
2018-11-21T23:15:42.072Z,48.00
2018-11-21T23:18:11.554Z,49.37
2018-11-21T23:20:41.020Z,47.87
2018-11-21T23:23:10.600Z,48.73
2018-11-21T23:25:40.082Z,49.30
2018-11-21T23:28:09.539Z,50.07
2018-11-21T23:30:39.297Z,48.87
2018-11-21T23:33:08.796Z,49.70
2018-11-21T23:35:38.319Z,48.30
2018-11-21T23:38:07.825Z,51.47
2018-11-21T23:40:37.291Z,47.13
2018-11-21T23:43:06.967Z,50.07
2018-11-21T23:45:36.596Z,48.50
2018-11-21T23:48:06.170Z,48.07
2018-11-21T23:50:35.718Z,51.23
2018-11-21T23:53:05.572Z,47.43
2018-11-21T23:55:35.047Z,53.17
2018-11-21T23:58:04.679Z,51.50
